Tuthill, South Dakota
Current Conditions -  °F | °C
As of 6:52 AM on Thursday 23 Oct 2014 (Local Time) from KVTN Reporting Station
Clear Clear  
Wind Chill: 24°   Ceiling: Unl
Heat Index: 30°   Visibility: 10mi
Dew Point: 29°   Wind: 6mph
Humidity: 96%   Direction: 260°W
Pressure: 30.03"   Gusts: NA
Location:  43.16°N, 101.5°W
Report Text: KVTN 231252Z AUTO 26005KT 10SM CLR M01/M02 A3003 RMK AO2 SLP182 I1000 T10111017
Loading
Personal Weather Stations






























Interactive Weather Map
Tropical Storm Tracking
New forecast layout! Learn more

10-Day Weather Forecast

Advertisements
Track Severe Weather on mobile